Blairstown, Iowa
Current Conditions -  °F | °C
As of 9:52 PM on Friday 24 Oct 2014 (Local Time) from KCID Reporting Station
Moderate Fog Moderate Fog  
Wind Chill: 54°   Ceiling: 300
Heat Index: 54°   Visibility: 0.5mi
Dew Point: 54°   Wind: 5mph
Humidity: 100%   Direction: 200°SSW
Pressure: 29.94"   Gusts: NA
Location:  41.91°N, 92.08°W
Report Text: KCID 250252Z 20004KT 1/2SM FG VV003 12/12 A2994 RMK AO2 SLP139 T01220122 50003
Loading
Personal Weather Stations






























Interactive Weather Map
Tropical Storm Tracking
New forecast layout! Learn more

10-Day Weather Forecast

Advertisements
Track Severe Weather on mobile